Time;durP1;ratioP1;P1;durP2;ratioP2;P2;SDS_P1;SDS_P2;PMS_P1;PMS_P2;Temp;Humidity;BMP_temperature;BMP_pressure;BME280_temperature;BME280_humidity;BME280_pressure;Samples;Min_cycle;Max_cycle;Signal;HPM_P1;HPM_P2
2023/10/29 00:01:53;;;;;;;7.00;3.60;;;;;;;16.06;72.36;96821.31;4968945;28;20280;-72
2023/10/29 00:05:13;;;;;;;7.93;4.27;;;;;;;16.13;72.03;96818.19;4951443;28;21118;-72
2023/10/29 00:08:34;;;;;;;6.80;3.63;;;;;;;16.21;71.30;96818.47;4968804;28;20594;-73
2023/10/29 00:11:55;;;;;;;5.93;3.80;;;;;;;16.01;72.14;96824.25;4953999;28;20312;-72
2023/10/29 00:15:15;;;;;;;6.07;3.40;;;;;;;15.94;72.13;96825.66;4968835;28;20195;-72
2023/10/29 00:18:36;;;;;;;5.40;3.23;;;;;;;15.94;71.53;96819.56;4968739;28;20198;-73
2023/10/29 00:21:57;;;;;;;8.10;3.70;;;;;;;15.84;72.50;96823.78;4968694;28;20579;-74
2023/10/29 00:25:18;;;;;;;5.87;3.37;;;;;;;15.83;72.00;96841.22;4968240;28;20227;-74
2023/10/29 00:28:39;;;;;;;5.13;3.30;;;;;;;15.64;72.91;96832.97;4968586;28;20251;-73
2023/10/29 00:31:59;;;;;;;5.13;3.03;;;;;;;15.58;73.24;96838.63;4968503;28;20197;-76
2023/10/29 00:35:23;;;;;;;5.50;2.80;;;;;;;15.72;72.11;96842.91;4968924;28;20217;-76
2023/10/29 00:38:43;;;;;;;4.73;3.00;;;;;;;15.44;73.01;96849.19;4950907;28;20588;-75
2023/10/29 00:42:04;;;;;;;6.97;3.60;;;;;;;14.98;73.71;96847.97;4951186;28;20197;-75
2023/10/29 00:45:27;;;;;;;7.60;3.33;;;;;;;14.74;75.36;96852.16;4953992;28;20259;-72
2023/10/29 00:48:48;;;;;;;8.67;3.60;;;;;;;14.14;74.97;96747.50;4968235;28;20256;-71
2023/10/29 00:52:09;;;;;;;6.83;3.20;;;;;;;14.68;74.82;96854.25;4968219;28;20306;-74
2023/10/29 00:55:29;;;;;;;5.77;3.17;;;;;;;14.59;75.10;96857.44;4968079;28;20596;-74
2023/10/29 00:58:51;;;;;;;7.53;2.87;;;;;;;14.72;74.89;96848.81;4951397;28;20197;-75
2023/10/29 01:02:12;;;;;;;6.07;3.13;;;;;;;14.74;74.99;96853.00;4953405;28;20196;-75
2023/10/29 01:05:33;;;;;;;5.97;3.13;;;;;;;14.91;74.31;96855.34;4970840;28;20677;-75
2023/10/29 01:08:53;;;;;;;7.80;4.30;;;;;;;15.09;73.44;96866.34;4953376;28;20203;-73
2023/10/29 01:12:15;;;;;;;5.13;3.17;;;;;;;14.93;73.72;96865.69;4951342;28;20208;-69
2023/10/29 01:15:36;;;;;;;6.50;2.70;;;;;;;14.99;73.13;96867.88;4967877;28;20189;-70
2023/10/29 01:18:57;;;;;;;4.63;3.10;;;;;;;15.01;72.24;96864.25;4967716;28;20198;-71
2023/10/29 01:22:18;;;;;;;6.83;2.70;;;;;;;14.75;72.99;96866.88;4967658;28;20286;-70
2023/10/29 01:25:39;;;;;;;6.17;3.40;;;;;;;14.59;74.24;96878.28;4966881;28;20227;-70
2023/10/29 01:28:59;;;;;;;6.20;3.73;;;;;;;14.49;73.67;96861.56;4967723;28;20590;-69
2023/10/29 01:32:20;;;;;;;10.30;4.53;;;;;;;14.57;73.00;96838.47;4967256;28;20323;-71
2023/10/29 01:35:41;;;;;;;5.40;3.20;;;;;;;14.28;74.76;96868.13;4950094;28;20189;-72
2023/10/29 01:39:01;;;;;;;6.10;3.57;;;;;;;14.35;74.19;96879.00;4949818;28;20229;-70
2023/10/29 01:42:22;;;;;;;5.07;3.33;;;;;;;14.16;74.68;96863.69;4952281;28;20679;-69
2023/10/29 01:45:43;;;;;;;6.63;3.37;;;;;;;14.59;73.92;96882.66;4951874;28;20220;-73
2023/10/29 01:49:07;;;;;;;7.53;3.73;;;;;;;14.79;72.67;96894.44;4949600;28;20196;-70
2023/10/29 01:52:28;;;;;;;6.53;3.50;;;;;;;14.85;71.87;96894.03;4966858;28;20251;-69
2023/10/29 01:55:50;;;;;;;4.57;2.97;;;;;;;14.58;72.09;96894.03;4949684;28;20699;-69
2023/10/29 01:59:11;;;;;;;4.87;3.33;;;;;;;14.07;73.96;96894.66;4949930;28;20659;-71
2023/10/29 02:02:32;;;;;;;10.00;3.50;;;;;;;14.30;73.51;96891.50;4935649;28;20235;-70
2023/10/29 02:05:53;;;;;;;6.73;3.20;;;;;;;14.08;74.47;96896.34;4951831;28;20244;-72
2023/10/29 02:09:13;;;;;;;7.67;4.47;;;;;;;14.13;73.80;96892.53;4950087;28;20645;-70
2023/10/29 02:12:34;;;;;;;5.60;3.07;;;;;;;14.48;73.09;96890.34;4949495;28;20202;-75
2023/10/29 02:15:55;;;;;;;7.63;3.87;;;;;;;14.55;73.15;96897.66;4950135;28;20219;-74
2023/10/29 02:19:16;;;;;;;8.70;3.47;;;;;;;14.55;72.48;96897.66;4949716;28;20196;-74
2023/10/29 02:22:37;;;;;;;6.87;3.50;;;;;;;14.59;72.79;96895.69;4966812;28;20200;-76
2023/10/29 02:25:58;;;;;;;7.07;3.87;;;;;;;14.69;72.80;96915.84;4949445;28;20298;-70
2023/10/29 02:29:18;;;;;;;6.63;4.07;;;;;;;14.83;71.90;96906.31;4951509;28;20572;-72
2023/10/29 02:32:39;;;;;;;4.23;3.03;;;;;;;14.57;72.55;96915.81;4949393;28;20180;-70
2023/10/29 02:36:00;;;;;;;4.93;3.27;;;;;;;14.19;74.05;96912.97;4966560;28;20192;-70
2023/10/29 02:39:20;;;;;;;9.27;3.83;;;;;;;14.26;74.02;96921.25;4967935;28;20192;-72
2023/10/29 02:42:41;;;;;;;5.47;3.47;;;;;;;14.42;74.12;96922.00;4953385;28;20190;-72
2023/10/29 02:46:02;;;;;;;5.90;3.23;;;;;;;14.63;72.86;96918.84;4970316;28;20191;-71
2023/10/29 02:49:22;;;;;;;5.83;3.53;;;;;;;14.51;72.85;96924.00;4953086;28;20521;-73
2023/10/29 02:52:43;;;;;;;6.20;3.67;;;;;;;14.33;73.33;96926.00;4953021;28;20200;-71
2023/10/29 02:56:04;;;;;;;5.73;3.47;;;;;;;14.06;74.71;96925.06;4970041;28;20229;-71
2023/10/29 02:59:26;;;;;;;7.43;4.10;;;;;;;14.08;74.45;96925.81;4970126;28;20223;-71
2023/10/29 03:02:47;;;;;;;4.87;3.00;;;;;;;13.97;74.74;96935.22;4952976;28;20188;-73
2023/10/29 03:06:08;;;;;;;8.17;3.47;;;;;;;13.60;75.88;96942.63;4969801;28;20267;-75
2023/10/29 03:09:29;;;;;;;5.83;3.43;;;;;;;13.32;77.13;96941.72;4951863;28;20287;-70
2023/10/29 03:12:50;;;;;;;4.43;3.20;;;;;;;13.26;78.13;96944.69;4952677;28;20200;-72
2023/10/29 03:16:11;;;;;;;7.23;3.43;;;;;;;13.36;77.85;96948.44;4952605;28;20196;-72
2023/10/29 03:19:31;;;;;;;8.77;3.40;;;;;;;13.82;76.34;96950.84;4952401;28;20636;-71
2023/10/29 03:22:52;;;;;;;9.30;4.20;;;;;;;14.31;74.94;96940.91;4969412;28;20188;-71
2023/10/29 03:26:13;;;;;;;5.57;3.70;;;;;;;14.37;74.31;96944.88;4969639;28;20200;-70
2023/10/29 03:29:36;;;;;;;9.33;3.37;;;;;;;14.23;74.64;96950.94;4969996;28;20751;-70
2023/10/29 03:32:57;;;;;;;7.90;3.20;;;;;;;14.12;75.50;96960.31;4970033;28;20283;-73
2023/10/29 03:36:18;;;;;;;8.47;3.30;;;;;;;14.18;75.41;96963.38;4952042;28;20591;-69
2023/10/29 03:39:38;;;;;;;9.73;3.67;;;;;;;14.36;74.91;96956.25;4969688;28;20192;-70
2023/10/29 03:42:59;;;;;;;6.90;3.50;;;;;;;14.26;74.96;96968.97;4952317;28;20678;-70
2023/10/29 03:46:20;;;;;;;6.43;3.27;;;;;;;13.95;75.76;96956.13;4969335;28;20193;-72
2023/10/29 03:49:41;;;;;;;11.17;3.93;;;;;;;14.25;75.44;96967.31;4968849;28;20189;-69
2023/10/29 03:53:04;;;;;;;9.83;4.20;;;;;;;14.09;75.17;96958.75;4969081;28;20223;-70
2023/10/29 03:56:25;;;;;;;7.63;3.50;;;;;;;14.22;75.31;96972.69;4969082;28;20794;-69
2023/10/29 03:59:46;;;;;;;5.93;4.30;;;;;;;14.25;74.72;96969.06;4969046;28;20196;-70
2023/10/29 04:03:18;;;;;;;5.90;3.63;;;;;;;14.37;75.17;96971.78;4969873;28;20187;-70
2023/10/29 04:06:39;;;;;;;4.80;3.20;;;;;;;14.26;74.90;96979.38;4951671;28;20739;-70
2023/10/29 04:10:00;;;;;;;5.17;3.20;;;;;;;13.97;74.49;96967.31;4951486;28;20199;-70
2023/10/29 04:13:21;;;;;;;6.50;3.40;;;;;;;13.86;76.33;96985.34;4968776;28;20247;-72
2023/10/29 04:16:42;;;;;;;5.27;2.87;;;;;;;13.88;75.91;96983.47;4968986;28;20578;-70
2023/10/29 04:20:02;;;;;;;11.73;3.57;;;;;;;13.89;75.99;96987.75;4968567;28;20618;-70
2023/10/29 04:23:26;;;;;;;5.47;3.63;;;;;;;14.00;75.38;96994.91;4936159;28;20263;-71
2023/10/29 04:26:46;;;;;;;17.93;8.03;;;;;;;14.06;75.55;96997.13;4968536;28;20192;-72
2023/10/29 04:30:09;;;;;;;6.17;3.47;;;;;;;14.07;75.59;96997.06;4968925;28;20199;-70
2023/10/29 04:33:30;;;;;;;7.63;3.30;;;;;;;14.06;74.95;97000.59;4968444;28;20569;-69
2023/10/29 04:37:03;;;;;;;8.27;3.40;;;;;;;13.88;76.14;97009.50;4968214;28;20195;-69
2023/10/29 04:40:23;;;;;;;9.57;3.73;;;;;;;13.53;76.78;97005.53;4968367;28;20198;-69
2023/10/29 04:43:44;;;;;;;11.43;4.37;;;;;;;13.61;76.74;97018.94;4968083;28;20192;-70
2023/10/29 04:47:05;;;;;;;5.03;3.30;;;;;;;13.34;77.71;97015.31;4968353;28;20719;-71
2023/10/29 04:50:26;;;;;;;8.60;3.73;;;;;;;13.37;76.94;97029.00;4952963;28;20249;-73
2023/10/29 04:53:46;;;;;;;9.67;4.40;;;;;;;13.30;76.75;97026.81;4967868;28;20192;-74
2023/10/29 04:57:09;;;;;;;9.17;4.83;;;;;;;12.83;78.89;97026.84;4968094;28;20237;-70
2023/10/29 05:00:30;;;;;;;10.93;4.00;;;;;;;12.93;79.35;97026.25;4967200;28;20287;-69
2023/10/29 05:03:51;;;;;;;7.57;4.50;;;;;;;12.92;80.08;97026.34;4967983;28;20221;-69
2023/10/29 05:07:12;;;;;;;9.30;4.60;;;;;;;13.08;79.34;97025.41;4967965;28;20272;-71
2023/10/29 05:10:32;;;;;;;6.83;4.17;;;;;;;13.33;78.16;97027.50;4950633;28;20258;-71
2023/10/29 05:13:53;;;;;;;9.40;4.87;;;;;;;13.41;77.14;97034.84;4934255;28;20262;-70
2023/10/29 05:17:14;;;;;;;5.33;3.23;;;;;;;13.45;76.97;97045.00;4967737;28;20197;-69
2023/10/29 05:20:35;;;;;;;6.93;3.87;;;;;;;13.63;75.74;97051.75;4950949;28;20581;-68
2023/10/29 05:23:56;;;;;;;7.23;3.57;;;;;;;13.75;75.34;97053.63;4952320;28;20286;-71
2023/10/29 05:27:17;;;;;;;6.73;3.53;;;;;;;13.69;75.63;97051.38;4949784;28;20199;-69
2023/10/29 05:30:39;;;;;;;7.50;4.03;;;;;;;13.77;74.53;97074.38;4967512;28;20273;-69
2023/10/29 05:34:00;;;;;;;5.93;4.40;;;;;;;14.05;73.60;97068.41;4967218;28;20195;-68
2023/10/29 05:37:21;;;;;;;10.43;5.77;;;;;;;13.56;74.60;97068.63;4967417;28;20191;-71
2023/10/29 05:40:44;;;;;;;8.10;4.30;;;;;;;13.29;76.03;97077.16;4967331;28;20194;-71
2023/10/29 05:44:04;;;;;;;6.63;4.43;;;;;;;13.43;76.37;97074.63;4949735;28;20242;-69
2023/10/29 05:47:25;;;;;;;6.70;3.63;;;;;;;13.88;74.55;97096.25;4949709;28;20675;-69
2023/10/29 05:50:46;;;;;;;7.07;3.87;;;;;;;13.84;74.72;97097.38;4949680;28;20196;-70
2023/10/29 05:54:06;;;;;;;6.60;4.07;;;;;;;13.82;75.07;97100.97;4967039;28;20195;-70
2023/10/29 05:57:27;;;;;;;6.03;3.67;;;;;;;13.80;74.99;97101.06;4946740;29;20230;-70
2023/10/29 06:00:49;;;;;;;5.50;3.63;;;;;;;13.89;74.94;97091.88;4948679;29;20192;-69
2023/10/29 06:04:09;;;;;;;6.37;3.47;;;;;;;13.92;75.07;97098.66;4948232;29;20662;-70
2023/10/29 06:07:30;;;;;;;8.73;4.13;;;;;;;14.24;74.09;97108.88;4948286;29;20204;-72
2023/10/29 06:10:51;;;;;;;5.57;3.80;;;;;;;14.64;72.71;97102.16;4948252;29;20201;-69
2023/10/29 06:14:12;;;;;;;8.93;4.17;;;;;;;14.80;72.31;97118.53;4948006;29;20281;-71
2023/10/29 06:17:33;;;;;;;6.60;3.20;;;;;;;14.85;72.27;97118.25;4948179;29;20193;-73
2023/10/29 06:20:54;;;;;;;6.47;3.63;;;;;;;15.02;72.08;97120.66;4946237;29;20661;-69
2023/10/29 06:24:14;;;;;;;8.93;3.70;;;;;;;14.99;72.38;97133.88;4946071;29;20263;-73
2023/10/29 06:27:35;;;;;;;7.23;3.50;;;;;;;15.18;71.80;97129.22;4945937;29;20203;-71
2023/10/29 06:30:56;;;;;;;9.80;3.50;;;;;;;15.37;72.10;97127.13;4948123;29;20583;-69
2023/10/29 06:34:17;;;;;;;8.40;4.13;;;;;;;15.48;71.67;97116.84;4947480;29;20204;-71
2023/10/29 06:37:39;;;;;;;5.10;3.30;;;;;;;15.72;71.13;97137.97;4931966;29;20280;-70
2023/10/29 06:40:59;;;;;;;6.73;3.70;;;;;;;16.00;70.33;97130.84;4945820;29;20186;-73
2023/10/29 06:44:20;;;;;;;9.73;4.13;;;;;;;15.97;70.51;97135.44;4946103;29;20251;-69
2023/10/29 06:47:41;;;;;;;8.20;4.13;;;;;;;16.18;70.22;97137.44;4945508;29;20699;-70
2023/10/29 06:51:01;;;;;;;5.17;3.10;;;;;;;16.38;68.93;97133.53;4946479;29;20278;-69
2023/10/29 06:54:22;;;;;;;10.27;3.90;;;;;;;16.70;68.88;97129.56;4947121;29;20288;-71
2023/10/29 06:57:43;;;;;;;7.20;3.60;;;;;;;16.74;68.85;97135.44;4964062;28;20356;-69
2023/10/29 07:01:04;;;;;;;8.63;3.50;;;;;;;17.02;68.25;97141.25;4966357;28;20187;-69
2023/10/29 07:04:24;;;;;;;10.83;3.90;;;;;;;17.32;67.36;97130.44;4966614;28;20275;-70
2023/10/29 07:07:45;;;;;;;5.63;3.00;;;;;;;17.10;67.18;97097.06;4966294;28;20203;-70
2023/10/29 07:11:06;;;;;;;7.10;4.00;;;;;;;17.34;68.27;97151.25;4965922;28;20190;-73
2023/10/29 07:14:27;;;;;;;7.97;3.93;;;;;;;17.37;68.83;97145.81;4966234;28;20191;-72
2023/10/29 07:17:47;;;;;;;7.53;3.73;;;;;;;17.53;68.68;97147.25;4965984;28;20328;-73
2023/10/29 07:21:14;;;;;;;6.87;3.60;;;;;;;17.70;68.97;97151.28;4948646;28;20195;-69
2023/10/29 07:24:38;;;;;;;12.23;4.77;;;;;;;17.97;66.36;97130.09;4950236;28;20249;-72
2023/10/29 07:27:59;;;;;;;8.13;3.30;;;;;;;18.02;66.43;97155.00;4969953;28;20206;-71
2023/10/29 07:31:19;;;;;;;9.40;3.73;;;;;;;18.10;66.16;97157.06;4969526;28;20783;-74
2023/10/29 07:34:40;;;;;;;7.53;3.43;;;;;;;18.38;65.00;97156.69;4969318;28;20190;-70
2023/10/29 07:38:01;;;;;;;9.03;3.60;;;;;;;18.53;65.53;97151.16;4953325;28;20207;-73
2023/10/29 07:41:21;;;;;;;8.40;4.30;;;;;;;18.90;63.25;97154.41;4935821;28;20756;-74
2023/10/29 07:44:42;;;;;;;7.60;3.90;;;;;;;19.01;61.96;97154.44;4968937;28;20333;-71
2023/10/29 07:48:03;;;;;;;5.60;3.37;;;;;;;19.24;60.43;97148.22;4969054;28;20224;-74
2023/10/29 07:51:30;;;;;;;6.40;3.60;;;;;;;19.27;60.01;97162.88;4954005;28;20640;-75
2023/10/29 07:54:50;;;;;;;7.33;4.03;;;;;;;19.39;59.14;97161.97;4935421;28;20554;-70
2023/10/29 07:58:11;;;;;;;6.30;3.27;;;;;;;19.61;58.96;97166.34;4969006;28;20192;-70
2023/10/29 08:01:50;;;;;;;5.80;3.63;;;;;;;19.60;57.71;97175.22;4955277;28;20270;-72
2023/10/29 08:05:11;;;;;;;11.97;3.70;;;;;;;19.78;57.65;97169.31;4968417;28;20316;-70
2023/10/29 08:08:31;;;;;;;7.23;3.27;;;;;;;19.78;56.09;97163.22;4968786;28;20291;-75
2023/10/29 08:11:58;;;;;;;6.73;2.80;;;;;;;19.99;55.68;97162.31;4968369;28;20278;-70
2023/10/29 08:15:19;;;;;;;7.77;2.87;;;;;;;20.12;56.00;97175.28;4951296;28;20199;-75
2023/10/29 08:18:40;;;;;;;5.63;3.03;;;;;;;20.02;55.10;97179.63;4936923;28;20200;-72
2023/10/29 08:22:01;;;;;;;5.90;2.70;;;;;;;19.93;53.35;97172.47;4968863;28;20730;-72
2023/10/29 08:25:23;;;;;;;8.97;3.07;;;;;;;20.19;53.33;97184.38;4951193;28;20231;-72
2023/10/29 08:28:45;;;;;;;7.47;2.47;;;;;;;20.14;52.88;97178.63;4968489;28;20275;-71
2023/10/29 08:32:06;;;;;;;4.87;2.90;;;;;;;20.27;52.89;97195.13;4968393;28;20197;-77
2023/10/29 08:35:27;;;;;;;9.87;3.23;;;;;;;20.47;52.87;97194.31;4953056;28;20663;-75
2023/10/29 08:38:47;;;;;;;4.47;2.67;;;;;;;20.61;52.31;97195.81;4968129;28;20181;-71
2023/10/29 08:42:08;;;;;;;3.67;2.90;;;;;;;20.40;52.57;97185.28;4950441;28;20225;-70
2023/10/29 08:45:29;;;;;;;6.10;3.77;;;;;;;20.39;52.09;97157.28;4950390;28;20228;-74
2023/10/29 08:48:53;;;;;;;11.60;3.50;;;;;;;20.02;52.84;97140.19;4968058;28;20205;-74
2023/10/29 08:52:14;;;;;;;5.80;2.93;;;;;;;20.49;52.99;97208.16;4967968;28;20279;-78
2023/10/29 08:55:37;;;;;;;7.33;3.53;;;;;;;20.51;52.72;97206.25;4950873;28;20736;-72
2023/10/29 08:58:58;;;;;;;9.30;3.17;;;;;;;20.44;52.58;97149.84;4935506;28;20191;-77
2023/10/29 09:02:18;;;;;;;8.93;3.57;;;;;;;20.90;52.08;97208.19;4950867;28;20251;-75
2023/10/29 09:05:46;;;;;;;6.17;3.57;;;;;;;21.19;51.04;97191.72;4979087;28;20263;-72
2023/10/29 09:09:07;;;;;;;2.60;2.27;;;;;;;21.39;50.52;97201.41;4989577;28;20292;-77
2023/10/29 09:12:30;;;;;;;5.37;3.07;;;;;;;21.11;50.63;97144.97;4989914;28;20244;-72
2023/10/29 09:15:12;;;;;;;5.37;2.40;;;;;;;21.44;50.66;97176.31;4987502;28;20964;-74
2023/10/29 09:17:47;;;;;;;7.43;2.90;;;;;;;21.00;51.22;97176.63;4986886;28;20381;-71
2023/10/29 09:20:15;;;;;;;6.63;3.40;;;;;;;21.15;50.85;97193.78;4970485;28;20205;-71
2023/10/29 09:22:47;;;;;;;7.07;2.23;;;;;;;21.12;51.08;97187.97;4985485;28;20200;-71
2023/10/29 09:25:15;;;;;;;6.43;3.00;;;;;;;21.36;50.10;97164.78;4970088;28;20239;-72
2023/10/29 09:27:44;;;;;;;5.30;3.27;;;;;;;21.56;50.03;97169.97;4985918;28;20212;-72
2023/10/29 09:30:11;;;;;;;4.30;2.87;;;;;;;21.51;49.49;97176.63;4985709;28;20228;-73
2023/10/29 09:32:39;;;;;;;5.40;2.73;;;;;;;21.21;49.60;97137.09;4986553;28;20196;-73
2023/10/29 09:35:08;;;;;;;5.10;2.73;;;;;;;21.31;49.90;97159.88;4969858;28;20193;-70
2023/10/29 09:37:35;;;;;;;4.87;3.00;;;;;;;21.46;49.74;97173.53;4969430;28;20288;-71
2023/10/29 09:40:08;;;;;;;8.53;3.33;;;;;;;21.81;49.17;97200.28;4969910;28;20241;-70
2023/10/29 09:42:39;;;;;;;6.97;3.33;;;;;;;21.78;49.31;97168.94;4985726;28;20204;-72
2023/10/29 09:45:11;;;;;;;11.37;3.73;;;;;;;21.66;49.13;97144.47;4985297;28;20804;-72
2023/10/29 09:47:49;;;;;;;8.87;3.40;;;;;;;22.18;48.15;97185.53;4985217;28;20201;-71
2023/10/29 09:50:57;;;;;;;21.43;3.70;;;;;;;22.21;47.80;97168.59;4984255;28;20194;-72
2023/10/29 09:53:29;;;;;;;6.77;3.00;;;;;;;22.33;48.24;97197.34;4966121;28;20718;-70
2023/10/29 09:55:57;;;;;;;6.40;3.50;;;;;;;21.98;47.91;97135.53;4957101;28;20248;-72
2023/10/29 09:58:27;;;;;;;9.43;2.93;;;;;;;21.95;47.68;97143.72;4933556;28;20293;-77
2023/10/29 10:00:58;;;;;;;6.13;3.13;;;;;;;21.45;48.06;97079.66;4946927;28;20226;-74
2023/10/29 10:03:26;;;;;;;9.17;2.87;;;;;;;22.00;48.42;97173.97;4930926;29;20203;-74
2023/10/29 10:06:06;;;;;;;6.83;2.40;;;;;;;21.70;48.45;97150.31;4957134;28;20209;-73
2023/10/29 10:08:33;;;;;;;4.63;2.80;;;;;;;21.79;48.63;97162.66;4967238;28;20621;-73
2023/10/29 10:11:01;;;;;;;6.03;3.07;;;;;;;21.85;48.63;97172.69;4965557;28;20206;-72
2023/10/29 10:13:53;;;;;;;7.07;3.00;;;;;;;21.71;48.58;97166.00;4967186;28;20195;-73
2023/10/29 10:16:25;;;;;;;7.13;2.97;;;;;;;21.88;48.51;97163.69;4949931;28;20673;-70
2023/10/29 10:18:55;;;;;;;6.40;2.80;;;;;;;22.03;48.29;97181.59;4949865;28;20223;-70
2023/10/29 10:21:26;;;;;;;5.83;3.27;;;;;;;21.69;48.02;97143.38;4965407;28;20567;-71
2023/10/29 10:23:58;;;;;;;6.43;3.13;;;;;;;22.11;48.07;97173.88;4966994;28;20233;-71
2023/10/29 10:26:31;;;;;;;6.20;2.40;;;;;;;22.07;47.73;97159.25;4965507;28;20219;-70
2023/10/29 10:29:02;;;;;;;5.33;3.13;;;;;;;22.16;47.81;97184.81;4967094;28;20228;-71
2023/10/29 10:31:31;;;;;;;9.97;2.97;;;;;;;22.14;47.62;97180.66;4949387;28;20242;-71
2023/10/29 10:34:09;;;;;;;5.33;3.13;;;;;;;22.28;47.54;97183.72;4966856;28;20196;-76
2023/10/29 10:36:40;;;;;;;6.40;2.50;;;;;;;22.10;47.32;97164.28;4965956;28;20205;-70
2023/10/29 10:39:11;;;;;;;7.23;2.83;;;;;;;22.24;47.01;97161.22;4966504;28;20194;-71
2023/10/29 10:41:49;;;;;;;8.10;3.30;;;;;;;22.18;47.33;97168.84;4966942;28;20771;-74
2023/10/29 10:44:19;;;;;;;6.57;2.80;;;;;;;21.80;47.35;97098.44;4966638;28;20225;-76
2023/10/29 10:47:03;;;;;;;9.03;2.60;;;;;;;22.38;47.23;97159.97;4966840;28;20713;-78
2023/10/29 10:49:32;;;;;;;5.53;2.93;;;;;;;22.43;47.02;97158.59;4967033;28;20819;-75
2023/10/29 10:52:02;;;;;;;4.10;2.30;;;;;;;22.52;46.42;97170.91;4949340;28;20253;-71
2023/10/29 10:54:29;;;;;;;7.10;3.07;;;;;;;22.51;47.03;97164.00;4965894;28;20365;-73
2023/10/29 10:57:01;;;;;;;5.83;3.37;;;;;;;22.72;46.18;97152.44;4983226;28;20239;-72
2023/10/29 10:59:30;;;;;;;5.23;2.50;;;;;;;22.79;45.98;97153.56;4989430;28;20325;-75
2023/10/29 11:02:00;;;;;;;5.50;2.90;;;;;;;22.73;45.93;97156.78;4989257;28;20202;-68
2023/10/29 11:04:30;;;;;;;6.97;3.60;;;;;;;22.71;46.57;97156.09;4990099;28;20274;-70
2023/10/29 11:06:58;;;;;;;4.53;2.47;;;;;;;22.58;46.34;97129.97;4988757;28;20231;-71
2023/10/29 11:09:27;;;;;;;7.30;2.70;;;;;;;22.55;46.34;97111.75;4988223;28;20290;-76
2023/10/29 11:11:58;;;;;;;6.17;2.83;;;;;;;22.97;45.69;97139.47;4990008;28;20190;-70
2023/10/29 11:14:28;;;;;;;5.33;2.57;;;;;;;22.70;45.57;97102.44;4989471;28;20195;-73
2023/10/29 11:16:59;;;;;;;19.27;4.33;;;;;;;22.95;45.07;97141.44;4988071;28;20212;-74
2023/10/29 11:19:33;;;;;;;5.83;3.17;;;;;;;23.16;44.99;97152.59;4955803;28;20262;-73
2023/10/29 11:22:29;;;;;;;7.40;3.80;;;;;;;23.25;44.65;97124.47;4987894;28;20206;-69
2023/10/29 11:25:08;;;;;;;7.87;4.23;;;;;;;23.32;45.08;97134.38;4988334;28;20255;-69
2023/10/29 11:27:40;;;;;;;4.93;2.37;;;;;;;23.35;44.30;97117.34;4972010;28;20657;-75
2023/10/29 11:30:19;;;;;;;7.27;3.47;;;;;;;23.44;44.19;97127.06;4971907;28;20199;-72
2023/10/29 11:33:08;;;;;;;6.47;3.43;;;;;;;23.54;44.64;97119.91;4955590;28;20762;-70
2023/10/29 11:35:37;;;;;;;8.40;3.13;;;;;;;23.12;44.67;97089.63;4987763;28;20550;-72
2023/10/29 11:38:31;;;;;;;7.60;3.40;;;;;;;23.32;44.25;97101.81;4988590;28;20218;-73
2023/10/29 11:40:58;;;;;;;6.80;2.77;;;;;;;23.41;44.78;97116.78;4988042;28;20297;-74
2023/10/29 11:43:27;;;;;;;12.93;3.33;;;;;;;23.48;44.67;97114.38;4989553;28;20187;-73
2023/10/29 11:46:01;;;;;;;6.53;2.73;;;;;;;23.36;44.68;97105.81;4989056;28;20242;-70
2023/10/29 11:48:30;;;;;;;6.27;2.60;;;;;;;22.93;44.55;97084.44;4987215;28;20192;-70
2023/10/29 11:51:03;;;;;;;3.53;2.17;;;;;;;23.14;44.66;97117.56;4988110;28;20198;-72
2023/10/29 11:53:35;;;;;;;7.93;2.77;;;;;;;22.94;44.93;97097.47;4988422;28;20188;-72
2023/10/29 11:56:09;;;;;;;12.67;4.30;;;;;;;23.20;44.61;97087.94;4987168;28;20244;-72
2023/10/29 11:58:37;;;;;;;5.10;2.73;;;;;;;23.43;44.97;97104.25;4988751;28;20281;-72
2023/10/29 12:01:06;;;;;;;4.30;3.10;;;;;;;23.28;44.65;97113.63;4987471;28;20719;-71
2023/10/29 12:03:33;;;;;;;4.87;2.67;;;;;;;23.20;44.31;97109.06;4971323;28;20203;-72
2023/10/29 12:06:01;;;;;;;4.00;2.53;;;;;;;23.22;44.87;97101.84;4987224;28;20320;-73
2023/10/29 12:08:31;;;;;;;5.17;2.47;;;;;;;23.40;43.93;97100.09;4987965;28;20254;-74
2023/10/29 12:10:59;;;;;;;7.20;3.13;;;;;;;23.62;44.38;97104.13;4965013;28;20196;-74
2023/10/29 12:13:40;;;;;;;6.23;2.77;;;;;;;23.62;43.54;97098.84;4976887;28;20207;-74
2023/10/29 12:16:09;;;;;;;7.53;2.73;;;;;;;23.55;44.27;97096.94;4974504;28;20249;-71
2023/10/29 12:18:39;;;;;;;10.40;4.13;;;;;;;23.61;43.68;97101.63;4959366;28;20203;-73
2023/10/29 12:21:08;;;;;;;5.90;3.03;;;;;;;23.56;43.35;97088.84;4987349;28;20188;-72
2023/10/29 12:23:37;;;;;;;5.77;2.53;;;;;;;23.78;43.47;97103.47;4988153;28;20282;-72
2023/10/29 12:26:06;;;;;;;5.20;2.33;;;;;;;23.44;43.81;97080.31;4989037;28;20284;-71
2023/10/29 12:28:37;;;;;;;5.23;2.10;;;;;;;23.28;44.20;97084.53;4988008;28;20192;-73
2023/10/29 12:31:22;;;;;;;7.00;3.10;;;;;;;23.40;44.37;97091.31;4986549;28;20212;-71
2023/10/29 12:33:57;;;;;;;8.63;3.60;;;;;;;23.52;43.98;97103.34;4986885;28;20193;-72
2023/10/29 12:36:26;;;;;;;8.97;3.20;;;;;;;23.15;43.68;97060.25;4970652;28;20884;-73
2023/10/29 12:38:53;;;;;;;6.17;3.03;;;;;;;23.44;44.12;97084.75;5002792;28;20291;-74
2023/10/29 12:41:21;;;;;;;7.80;3.63;;;;;;;23.10;43.54;97030.81;4985929;28;20302;-77
2023/10/29 12:43:54;;;;;;;7.80;3.43;;;;;;;23.59;44.01;97093.88;4987810;28;20213;-72
2023/10/29 12:46:24;;;;;;;5.53;3.00;;;;;;;23.46;43.86;97069.59;4987514;28;20645;-73
2023/10/29 12:49:01;;;;;;;10.13;4.33;;;;;;;23.39;43.37;97089.66;4986214;28;20281;-72
2023/10/29 12:51:36;;;;;;;9.10;3.17;;;;;;;23.54;43.18;97085.53;4970655;28;20196;-71
2023/10/29 12:54:17;;;;;;;9.93;3.50;;;;;;;23.54;43.57;97092.63;4987405;28;20192;-73
2023/10/29 12:56:58;;;;;;;6.73;2.40;;;;;;;22.70;44.37;97032.94;4986778;28;20236;-71
2023/10/29 12:59:28;;;;;;;6.20;2.77;;;;;;;22.95;44.21;97062.19;4987592;28;20316;-71
2023/10/29 13:02:04;;;;;;;9.27;4.27;;;;;;;23.23;43.94;97100.84;4970363;28;20669;-73
2023/10/29 13:04:34;;;;;;;3.57;2.20;;;;;;;23.17;43.81;97087.38;4987826;28;20281;-71
2023/10/29 13:07:07;;;;;;;5.83;2.53;;;;;;;23.34;42.90;97105.13;4986517;28;20690;-70
2023/10/29 13:09:39;;;;;;;5.23;2.60;;;;;;;23.14;43.67;97082.41;4987982;28;20192;-70
2023/10/29 13:12:10;;;;;;;7.17;2.77;;;;;;;23.23;43.52;97073.56;4985755;28;20214;-72
2023/10/29 13:14:39;;;;;;;4.40;2.40;;;;;;;23.47;43.49;97099.50;4988140;28;20697;-72
2023/10/29 13:17:07;;;;;;;4.97;2.83;;;;;;;23.32;43.24;97084.16;4987084;28;20276;-73
2023/10/29 13:19:36;;;;;;;7.97;3.70;;;;;;;23.35;43.18;97083.00;4987807;28;20609;-72
2023/10/29 13:22:05;;;;;;;6.50;2.80;;;;;;;23.58;43.01;97086.06;4986725;28;20279;-70
2023/10/29 13:24:32;;;;;;;13.13;7.67;;;;;;;23.51;43.10;97095.59;4987206;28;20235;-71
2023/10/29 13:27:01;;;;;;;7.73;4.47;;;;;;;23.63;42.69;97100.53;4987750;28;20189;-70
2023/10/29 13:29:29;;;;;;;8.10;3.27;;;;;;;23.58;43.00;97099.28;4987025;28;20244;-72
2023/10/29 13:31:56;;;;;;;7.80;3.10;;;;;;;23.58;42.88;97101.91;4987848;28;20287;-71
2023/10/29 13:34:23;;;;;;;9.47;5.47;;;;;;;23.38;43.63;97088.84;4986033;28;20194;-71
2023/10/29 13:36:50;;;;;;;11.40;4.80;;;;;;;23.05;43.99;97062.13;4986321;28;20279;-74
2023/10/29 13:39:18;;;;;;;10.60;4.97;;;;;;;23.22;43.37;97085.13;4987384;28;20203;-71
2023/10/29 13:41:48;;;;;;;15.90;5.07;;;;;;;23.05;44.30;97070.91;4986941;28;20299;-70
2023/10/29 13:44:18;;;;;;;8.90;4.90;;;;;;;22.76;43.36;97053.47;4985802;28;20207;-74
2023/10/29 13:46:45;;;;;;;8.20;4.57;;;;;;;22.94;44.20;97086.06;4985418;28;20187;-74
2023/10/29 13:49:13;;;;;;;8.30;4.57;;;;;;;23.04;44.04;97076.31;4987112;28;20206;-73
2023/10/29 13:51:44;;;;;;;11.10;5.70;;;;;;;23.17;43.88;97097.94;4985302;28;20290;-70
2023/10/29 13:54:17;;;;;;;16.03;6.77;;;;;;;23.12;44.35;97082.53;4985996;28;20253;-71
2023/10/29 13:56:45;;;;;;;9.97;3.57;;;;;;;22.77;45.13;97074.50;4986037;28;20231;-72
2023/10/29 13:59:16;;;;;;;5.83;3.87;;;;;;;22.98;44.29;97084.84;4969676;28;20635;-75
2023/10/29 14:01:43;;;;;;;11.83;4.00;;;;;;;23.00;44.62;97096.09;4985533;28;20293;-70
2023/10/29 14:04:18;;;;;;;13.40;5.77;;;;;;;22.78;44.15;97054.16;4986619;28;20221;-72
2023/10/29 14:06:51;;;;;;;19.17;11.50;;;;;;;23.02;44.48;97089.66;4985297;28;20234;-71
2023/10/29 14:09:19;;;;;;;19.47;9.80;;;;;;;23.00;44.80;97078.41;4986527;28;20293;-71